sensor_id;sensor_type;location;lat;lon;timestamp;P1;durP1;ratioP1;P2;durP2;ratioP2
76699;SDS011;70081;44.524;0.194;2023-06-22T00:00:54;12.03;;;10.10;;
76699;SDS011;70081;44.524;0.194;2023-06-22T00:06:26;14.43;;;9.43;;
76699;SDS011;70081;44.524;0.194;2023-06-22T00:11:59;11.97;;;8.93;;
76699;SDS011;70081;44.524;0.194;2023-06-22T00:17:32;11.53;;;8.73;;
76699;SDS011;70081;44.524;0.194;2023-06-22T00:23:08;10.37;;;8.43;;
76699;SDS011;70081;44.524;0.194;2023-06-22T00:28:38;14.17;;;8.50;;
76699;SDS011;70081;44.524;0.194;2023-06-22T00:34:10;11.93;;;8.47;;
76699;SDS011;70081;44.524;0.194;2023-06-22T00:39:43;12.53;;;8.50;;
76699;SDS011;70081;44.524;0.194;2023-06-22T00:45:16;13.10;;;8.87;;
76699;SDS011;70081;44.524;0.194;2023-06-22T00:50:51;13.73;;;8.07;;
76699;SDS011;70081;44.524;0.194;2023-06-22T00:56:20;10.37;;;6.83;;
76699;SDS011;70081;44.524;0.194;2023-06-22T01:01:53;6.87;;;5.47;;
76699;SDS011;70081;44.524;0.194;2023-06-22T01:07:26;4.27;;;3.37;;
76699;SDS011;70081;44.524;0.194;2023-06-22T01:12:58;4.47;;;2.43;;
76699;SDS011;70081;44.524;0.194;2023-06-22T01:24:04;2.97;;;2.13;;
76699;SDS011;70081;44.524;0.194;2023-06-22T01:29:34;2.60;;;1.70;;
76699;SDS011;70081;44.524;0.194;2023-06-22T01:35:08;2.27;;;1.90;;
76699;SDS011;70081;44.524;0.194;2023-06-22T01:40:41;4.03;;;1.50;;
76699;SDS011;70081;44.524;0.194;2023-06-22T01:46:15;2.47;;;1.10;;
76699;SDS011;70081;44.524;0.194;2023-06-22T01:51:46;2.73;;;1.33;;
76699;SDS011;70081;44.524;0.194;2023-06-22T01:57:18;1.47;;;1.03;;
76699;SDS011;70081;44.524;0.194;2023-06-22T02:02:53;1.07;;;0.80;;
76699;SDS011;70081;44.524;0.194;2023-06-22T02:08:25;2.23;;;1.57;;
76699;SDS011;70081;44.524;0.194;2023-06-22T02:13:57;1.90;;;1.57;;
76699;SDS011;70081;44.524;0.194;2023-06-22T02:19:36;2.97;;;2.00;;
76699;SDS011;70081;44.524;0.194;2023-06-22T02:25:03;4.17;;;1.90;;
76699;SDS011;70081;44.524;0.194;2023-06-22T02:30:35;2.23;;;1.60;;
76699;SDS011;70081;44.524;0.194;2023-06-22T02:36:09;1.83;;;1.57;;
76699;SDS011;70081;44.524;0.194;2023-06-22T02:41:40;2.43;;;1.80;;
76699;SDS011;70081;44.524;0.194;2023-06-22T02:47:13;4.13;;;1.60;;
76699;SDS011;70081;44.524;0.194;2023-06-22T02:52:45;4.70;;;1.60;;
76699;SDS011;70081;44.524;0.194;2023-06-22T02:58:18;1.17;;;1.10;;
76699;SDS011;70081;44.524;0.194;2023-06-22T03:03:51;1.40;;;1.30;;
76699;SDS011;70081;44.524;0.194;2023-06-22T03:09:25;2.67;;;1.43;;
76699;SDS011;70081;44.524;0.194;2023-06-22T03:14:56;1.83;;;1.20;;
76699;SDS011;70081;44.524;0.194;2023-06-22T03:20:33;1.77;;;1.33;;
76699;SDS011;70081;44.524;0.194;2023-06-22T03:26:00;4.90;;;1.83;;
76699;SDS011;70081;44.524;0.194;2023-06-22T03:31:33;4.23;;;2.03;;
76699;SDS011;70081;44.524;0.194;2023-06-22T03:37:04;3.77;;;2.73;;
76699;SDS011;70081;44.524;0.194;2023-06-22T03:42:38;3.93;;;2.77;;
76699;SDS011;70081;44.524;0.194;2023-06-22T03:48:10;4.60;;;2.57;;
76699;SDS011;70081;44.524;0.194;2023-06-22T03:53:42;4.53;;;2.70;;
76699;SDS011;70081;44.524;0.194;2023-06-22T03:59:15;7.33;;;2.70;;
76699;SDS011;70081;44.524;0.194;2023-06-22T04:04:47;3.10;;;2.60;;
76699;SDS011;70081;44.524;0.194;2023-06-22T04:10:19;8.17;;;3.53;;
76699;SDS011;70081;44.524;0.194;2023-06-22T04:15:52;5.23;;;3.57;;
76699;SDS011;70081;44.524;0.194;2023-06-22T04:21:26;6.00;;;3.63;;
76699;SDS011;70081;44.524;0.194;2023-06-22T04:27:00;6.53;;;3.60;;
76699;SDS011;70081;44.524;0.194;2023-06-22T04:32:33;8.97;;;4.23;;
76699;SDS011;70081;44.524;0.194;2023-06-22T04:38:05;6.30;;;3.87;;
76699;SDS011;70081;44.524;0.194;2023-06-22T04:43:38;9.70;;;5.17;;
76699;SDS011;70081;44.524;0.194;2023-06-22T04:49:11;8.53;;;4.50;;
76699;SDS011;70081;44.524;0.194;2023-06-22T04:54:49;10.87;;;5.33;;
76699;SDS011;70081;44.524;0.194;2023-06-22T05:00:18;7.87;;;5.13;;
76699;SDS011;70081;44.524;0.194;2023-06-22T05:05:48;13.80;;;6.33;;
76699;SDS011;70081;44.524;0.194;2023-06-22T05:11:22;15.53;;;4.43;;
76699;SDS011;70081;44.524;0.194;2023-06-22T05:16:54;51.20;;;6.50;;
76699;SDS011;70081;44.524;0.194;2023-06-22T05:22:27;17.50;;;5.80;;
76699;SDS011;70081;44.524;0.194;2023-06-22T05:28:00;9.50;;;5.73;;
76699;SDS011;70081;44.524;0.194;2023-06-22T05:33:33;8.93;;;4.47;;
76699;SDS011;70081;44.524;0.194;2023-06-22T05:39:10;14.00;;;5.33;;
76699;SDS011;70081;44.524;0.194;2023-06-22T05:44:47;6.43;;;4.53;;
76699;SDS011;70081;44.524;0.194;2023-06-22T05:50:12;7.57;;;4.40;;
76699;SDS011;70081;44.524;0.194;2023-06-22T05:55:44;8.97;;;4.63;;
76699;SDS011;70081;44.524;0.194;2023-06-22T06:01:18;6.50;;;4.40;;
76699;SDS011;70081;44.524;0.194;2023-06-22T06:06:51;5.73;;;4.63;;
76699;SDS011;70081;44.524;0.194;2023-06-22T06:12:28;5.70;;;4.10;;
76699;SDS011;70081;44.524;0.194;2023-06-22T06:17:57;7.43;;;5.13;;
76699;SDS011;70081;44.524;0.194;2023-06-22T06:23:30;5.63;;;4.40;;
76699;SDS011;70081;44.524;0.194;2023-06-22T06:29:04;6.37;;;5.23;;
76699;SDS011;70081;44.524;0.194;2023-06-22T06:34:36;6.37;;;5.23;;
76699;SDS011;70081;44.524;0.194;2023-06-22T06:40:09;7.33;;;5.07;;
76699;SDS011;70081;44.524;0.194;2023-06-22T06:45:39;5.37;;;4.37;;
76699;SDS011;70081;44.524;0.194;2023-06-22T06:51:12;10.23;;;5.13;;
76699;SDS011;70081;44.524;0.194;2023-06-22T06:56:48;7.67;;;4.60;;
76699;SDS011;70081;44.524;0.194;2023-06-22T07:02:18;6.33;;;4.83;;
76699;SDS011;70081;44.524;0.194;2023-06-22T07:07:51;6.47;;;4.80;;
76699;SDS011;70081;44.524;0.194;2023-06-22T07:13:24;8.60;;;4.77;;
76699;SDS011;70081;44.524;0.194;2023-06-22T07:18:58;8.93;;;5.87;;
76699;SDS011;70081;44.524;0.194;2023-06-22T07:24:30;7.57;;;6.30;;
76699;SDS011;70081;44.524;0.194;2023-06-22T07:30:04;12.70;;;6.93;;
76699;SDS011;70081;44.524;0.194;2023-06-22T07:35:36;9.97;;;6.43;;
76699;SDS011;70081;44.524;0.194;2023-06-22T07:41:08;10.10;;;6.40;;
76699;SDS011;70081;44.524;0.194;2023-06-22T07:46:41;10.33;;;7.23;;
76699;SDS011;70081;44.524;0.194;2023-06-22T07:52:14;11.47;;;7.97;;
76699;SDS011;70081;44.524;0.194;2023-06-22T07:57:47;13.30;;;9.20;;
76699;SDS011;70081;44.524;0.194;2023-06-22T08:03:18;10.33;;;8.53;;
76699;SDS011;70081;44.524;0.194;2023-06-22T08:08:53;10.93;;;8.00;;
76699;SDS011;70081;44.524;0.194;2023-06-22T08:14:24;10.73;;;8.10;;
76699;SDS011;70081;44.524;0.194;2023-06-22T08:19:57;10.50;;;7.27;;
76699;SDS011;70081;44.524;0.194;2023-06-22T08:25:28;10.13;;;7.10;;
76699;SDS011;70081;44.524;0.194;2023-06-22T08:31:01;9.70;;;6.40;;
76699;SDS011;70081;44.524;0.194;2023-06-22T08:36:37;7.80;;;6.27;;
76699;SDS011;70081;44.524;0.194;2023-06-22T08:42:06;7.63;;;6.57;;
76699;SDS011;70081;44.524;0.194;2023-06-22T08:47:40;8.27;;;6.27;;
76699;SDS011;70081;44.524;0.194;2023-06-22T08:53:12;9.13;;;6.23;;
76699;SDS011;70081;44.524;0.194;2023-06-22T08:58:45;9.53;;;6.30;;
76699;SDS011;70081;44.524;0.194;2023-06-22T09:04:18;8.33;;;6.70;;
76699;SDS011;70081;44.524;0.194;2023-06-22T09:09:49;9.80;;;7.20;;
76699;SDS011;70081;44.524;0.194;2023-06-22T09:15:23;9.37;;;6.20;;
76699;SDS011;70081;44.524;0.194;2023-06-22T09:20:56;9.27;;;6.47;;
76699;SDS011;70081;44.524;0.194;2023-06-22T09:26:29;8.37;;;6.43;;
76699;SDS011;70081;44.524;0.194;2023-06-22T09:32:03;7.77;;;6.30;;
76699;SDS011;70081;44.524;0.194;2023-06-22T09:37:36;8.33;;;7.47;;
76699;SDS011;70081;44.524;0.194;2023-06-22T09:43:08;10.10;;;7.07;;
76699;SDS011;70081;44.524;0.194;2023-06-22T09:48:42;9.93;;;6.27;;
76699;SDS011;70081;44.524;0.194;2023-06-22T09:54:14;8.43;;;7.17;;
76699;SDS011;70081;44.524;0.194;2023-06-22T09:59:47;11.00;;;8.10;;
76699;SDS011;70081;44.524;0.194;2023-06-22T10:05:20;7.13;;;6.37;;
76699;SDS011;70081;44.524;0.194;2023-06-22T10:10:53;6.63;;;5.23;;
76699;SDS011;70081;44.524;0.194;2023-06-22T10:16:30;5.97;;;4.70;;
76699;SDS011;70081;44.524;0.194;2023-06-22T10:21:59;5.43;;;4.80;;
76699;SDS011;70081;44.524;0.194;2023-06-22T10:27:33;6.13;;;4.77;;
76699;SDS011;70081;44.524;0.194;2023-06-22T10:33:08;7.00;;;5.47;;
76699;SDS011;70081;44.524;0.194;2023-06-22T10:38:38;9.40;;;5.40;;
76699;SDS011;70081;44.524;0.194;2023-06-22T10:44:11;6.77;;;5.17;;
76699;SDS011;70081;44.524;0.194;2023-06-22T10:49:44;6.10;;;4.90;;
76699;SDS011;70081;44.524;0.194;2023-06-22T10:55:17;7.03;;;5.10;;
76699;SDS011;70081;44.524;0.194;2023-06-22T11:00:49;6.37;;;4.73;;
76699;SDS011;70081;44.524;0.194;2023-06-22T11:06:21;7.17;;;5.57;;
76699;SDS011;70081;44.524;0.194;2023-06-22T11:11:55;6.30;;;4.30;;
76699;SDS011;70081;44.524;0.194;2023-06-22T11:17:26;5.27;;;4.73;;
76699;SDS011;70081;44.524;0.194;2023-06-22T11:22:58;9.83;;;5.00;;
76699;SDS011;70081;44.524;0.194;2023-06-22T11:28:31;6.03;;;4.40;;
76699;SDS011;70081;44.524;0.194;2023-06-22T11:34:04;7.40;;;4.93;;
76699;SDS011;70081;44.524;0.194;2023-06-22T11:39:39;5.23;;;4.03;;
76699;SDS011;70081;44.524;0.194;2023-06-22T11:45:11;5.67;;;3.70;;
76699;SDS011;70081;44.524;0.194;2023-06-22T11:50:44;6.50;;;3.80;;
76699;SDS011;70081;44.524;0.194;2023-06-22T11:56:17;5.07;;;4.47;;
76699;SDS011;70081;44.524;0.194;2023-06-22T12:01:51;5.70;;;4.30;;
76699;SDS011;70081;44.524;0.194;2023-06-22T12:07:23;4.87;;;3.83;;
76699;SDS011;70081;44.524;0.194;2023-06-22T12:12:58;5.33;;;3.80;;
76699;SDS011;70081;44.524;0.194;2023-06-22T12:18:29;5.10;;;4.00;;
76699;SDS011;70081;44.524;0.194;2023-06-22T12:24:01;6.23;;;4.07;;
76699;SDS011;70081;44.524;0.194;2023-06-22T12:29:32;4.53;;;3.27;;
76699;SDS011;70081;44.524;0.194;2023-06-22T12:35:05;9.33;;;3.60;;
76699;SDS011;70081;44.524;0.194;2023-06-22T12:40:38;4.50;;;3.63;;
76699;SDS011;70081;44.524;0.194;2023-06-22T12:46:11;5.60;;;3.53;;
76699;SDS011;70081;44.524;0.194;2023-06-22T12:51:44;6.33;;;3.97;;
76699;SDS011;70081;44.524;0.194;2023-06-22T12:57:18;5.10;;;3.40;;
76699;SDS011;70081;44.524;0.194;2023-06-22T13:02:48;3.77;;;3.13;;
76699;SDS011;70081;44.524;0.194;2023-06-22T13:08:21;4.17;;;3.40;;
76699;SDS011;70081;44.524;0.194;2023-06-22T13:13:54;3.80;;;2.97;;
76699;SDS011;70081;44.524;0.194;2023-06-22T13:19:32;4.23;;;3.57;;
76699;SDS011;70081;44.524;0.194;2023-06-22T13:25:02;4.43;;;3.27;;
76699;SDS011;70081;44.524;0.194;2023-06-22T13:30:34;5.93;;;4.00;;
76699;SDS011;70081;44.524;0.194;2023-06-22T13:36:06;4.17;;;3.47;;
76699;SDS011;70081;44.524;0.194;2023-06-22T13:41:39;6.57;;;3.47;;
76699;SDS011;70081;44.524;0.194;2023-06-22T13:47:13;4.00;;;3.07;;
76699;SDS011;70081;44.524;0.194;2023-06-22T13:52:45;4.60;;;3.63;;
76699;SDS011;70081;44.524;0.194;2023-06-22T13:58:20;3.83;;;3.20;;
76699;SDS011;70081;44.524;0.194;2023-06-22T14:03:50;5.07;;;3.53;;
76699;SDS011;70081;44.524;0.194;2023-06-22T14:09:22;4.17;;;3.37;;
76699;SDS011;70081;44.524;0.194;2023-06-22T14:14:55;5.80;;;3.50;;
76699;SDS011;70081;44.524;0.194;2023-06-22T14:20:27;3.57;;;2.97;;
76699;SDS011;70081;44.524;0.194;2023-06-22T14:25:59;4.90;;;3.00;;
76699;SDS011;70081;44.524;0.194;2023-06-22T14:31:33;7.07;;;3.47;;
76699;SDS011;70081;44.524;0.194;2023-06-22T14:37:04;8.53;;;4.27;;
76699;SDS011;70081;44.524;0.194;2023-06-22T14:42:35;6.37;;;3.90;;
76699;SDS011;70081;44.524;0.194;2023-06-22T14:48:08;5.10;;;3.83;;
76699;SDS011;70081;44.524;0.194;2023-06-22T14:53:41;4.00;;;2.80;;
76699;SDS011;70081;44.524;0.194;2023-06-22T14:59:13;4.13;;;2.23;;
76699;SDS011;70081;44.524;0.194;2023-06-22T15:04:45;3.47;;;2.87;;
76699;SDS011;70081;44.524;0.194;2023-06-22T15:10:20;4.53;;;3.20;;
76699;SDS011;70081;44.524;0.194;2023-06-22T15:15:53;4.20;;;3.50;;
76699;SDS011;70081;44.524;0.194;2023-06-22T15:21:28;5.23;;;4.07;;
76699;SDS011;70081;44.524;0.194;2023-06-22T15:27:01;6.50;;;3.83;;
76699;SDS011;70081;44.524;0.194;2023-06-22T15:32:33;7.10;;;4.60;;
76699;SDS011;70081;44.524;0.194;2023-06-22T15:38:05;5.13;;;4.63;;
76699;SDS011;70081;44.524;0.194;2023-06-22T15:43:38;7.60;;;4.73;;
76699;SDS011;70081;44.524;0.194;2023-06-22T15:49:09;5.00;;;4.47;;
76699;SDS011;70081;44.524;0.194;2023-06-22T15:54:42;6.67;;;4.60;;
76699;SDS011;70081;44.524;0.194;2023-06-22T16:00:14;6.43;;;4.47;;
76699;SDS011;70081;44.524;0.194;2023-06-22T16:05:47;7.63;;;3.90;;
76699;SDS011;70081;44.524;0.194;2023-06-22T16:11:20;4.00;;;3.50;;
76699;SDS011;70081;44.524;0.194;2023-06-22T16:16:53;4.40;;;4.00;;
76699;SDS011;70081;44.524;0.194;2023-06-22T16:22:25;3.87;;;3.47;;
76699;SDS011;70081;44.524;0.194;2023-06-22T16:27:58;4.43;;;3.60;;
76699;SDS011;70081;44.524;0.194;2023-06-22T16:33:30;5.53;;;3.20;;
76699;SDS011;70081;44.524;0.194;2023-06-22T16:39:04;4.77;;;3.30;;
76699;SDS011;70081;44.524;0.194;2023-06-22T16:44:36;3.87;;;3.23;;
76699;SDS011;70081;44.524;0.194;2023-06-22T16:50:08;4.53;;;3.33;;
76699;SDS011;70081;44.524;0.194;2023-06-22T16:55:40;5.30;;;3.70;;
76699;SDS011;70081;44.524;0.194;2023-06-22T17:01:17;7.27;;;3.83;;
76699;SDS011;70081;44.524;0.194;2023-06-22T17:06:47;4.57;;;2.70;;
76699;SDS011;70081;44.524;0.194;2023-06-22T17:17:52;6.80;;;3.33;;
76699;SDS011;70081;44.524;0.194;2023-06-22T17:23:26;4.27;;;3.07;;
76699;SDS011;70081;44.524;0.194;2023-06-22T17:29:01;4.13;;;3.07;;
76699;SDS011;70081;44.524;0.194;2023-06-22T17:34:30;5.30;;;3.03;;
76699;SDS011;70081;44.524;0.194;2023-06-22T17:40:03;3.40;;;2.90;;
76699;SDS011;70081;44.524;0.194;2023-06-22T17:45:40;3.63;;;3.30;;
76699;SDS011;70081;44.524;0.194;2023-06-22T17:51:09;5.13;;;3.47;;
76699;SDS011;70081;44.524;0.194;2023-06-22T17:56:40;4.77;;;3.53;;
76699;SDS011;70081;44.524;0.194;2023-06-22T18:02:13;4.43;;;3.70;;
76699;SDS011;70081;44.524;0.194;2023-06-22T18:07:47;4.47;;;3.43;;
76699;SDS011;70081;44.524;0.194;2023-06-22T18:13:19;4.20;;;3.00;;
76699;SDS011;70081;44.524;0.194;2023-06-22T18:18:51;5.53;;;3.70;;
76699;SDS011;70081;44.524;0.194;2023-06-22T18:24:24;7.23;;;4.50;;
76699;SDS011;70081;44.524;0.194;2023-06-22T18:29:58;4.57;;;3.70;;
76699;SDS011;70081;44.524;0.194;2023-06-22T18:35:30;5.93;;;3.73;;
76699;SDS011;70081;44.524;0.194;2023-06-22T18:41:02;4.90;;;3.63;;
76699;SDS011;70081;44.524;0.194;2023-06-22T18:46:35;4.60;;;3.43;;
76699;SDS011;70081;44.524;0.194;2023-06-22T18:52:12;5.57;;;3.77;;
76699;SDS011;70081;44.524;0.194;2023-06-22T18:57:40;4.50;;;3.63;;
76699;SDS011;70081;44.524;0.194;2023-06-22T19:03:10;5.00;;;3.77;;
76699;SDS011;70081;44.524;0.194;2023-06-22T19:14:19;7.93;;;4.67;;
76699;SDS011;70081;44.524;0.194;2023-06-22T19:19:50;7.07;;;4.27;;
76699;SDS011;70081;44.524;0.194;2023-06-22T19:25:22;6.57;;;4.53;;
76699;SDS011;70081;44.524;0.194;2023-06-22T19:30:56;6.83;;;5.07;;
76699;SDS011;70081;44.524;0.194;2023-06-22T19:36:30;6.70;;;4.77;;
76699;SDS011;70081;44.524;0.194;2023-06-22T19:42:02;9.30;;;5.93;;
76699;SDS011;70081;44.524;0.194;2023-06-22T19:47:34;7.13;;;5.13;;
76699;SDS011;70081;44.524;0.194;2023-06-22T19:53:07;7.33;;;5.10;;
76699;SDS011;70081;44.524;0.194;2023-06-22T19:58:39;7.43;;;4.33;;
76699;SDS011;70081;44.524;0.194;2023-06-22T20:04:13;7.40;;;4.63;;
76699;SDS011;70081;44.524;0.194;2023-06-22T20:09:49;7.17;;;5.40;;
76699;SDS011;70081;44.524;0.194;2023-06-22T20:15:17;6.70;;;5.00;;
76699;SDS011;70081;44.524;0.194;2023-06-22T20:20:51;7.23;;;5.30;;
76699;SDS011;70081;44.524;0.194;2023-06-22T20:26:23;5.33;;;3.83;;
76699;SDS011;70081;44.524;0.194;2023-06-22T20:32:04;5.10;;;4.37;;
76699;SDS011;70081;44.524;0.194;2023-06-22T20:37:30;7.03;;;4.00;;
76699;SDS011;70081;44.524;0.194;2023-06-22T20:43:01;8.07;;;4.60;;
76699;SDS011;70081;44.524;0.194;2023-06-22T20:48:34;6.53;;;5.20;;
76699;SDS011;70081;44.524;0.194;2023-06-22T20:54:07;7.47;;;5.07;;
76699;SDS011;70081;44.524;0.194;2023-06-22T20:59:41;12.97;;;6.40;;
76699;SDS011;70081;44.524;0.194;2023-06-22T21:05:15;6.83;;;6.00;;
76699;SDS011;70081;44.524;0.194;2023-06-22T21:10:46;6.20;;;5.23;;
76699;SDS011;70081;44.524;0.194;2023-06-22T21:16:18;7.60;;;5.43;;
76699;SDS011;70081;44.524;0.194;2023-06-22T21:21:51;11.37;;;6.13;;
76699;SDS011;70081;44.524;0.194;2023-06-22T21:27:23;6.77;;;4.80;;
76699;SDS011;70081;44.524;0.194;2023-06-22T21:32:56;7.30;;;5.63;;
76699;SDS011;70081;44.524;0.194;2023-06-22T21:38:28;7.03;;;5.83;;
76699;SDS011;70081;44.524;0.194;2023-06-22T21:44:00;9.50;;;5.83;;
76699;SDS011;70081;44.524;0.194;2023-06-22T21:49:31;8.20;;;6.13;;
76699;SDS011;70081;44.524;0.194;2023-06-22T21:55:04;10.13;;;6.90;;
76699;SDS011;70081;44.524;0.194;2023-06-22T22:00:36;14.17;;;7.03;;
76699;SDS011;70081;44.524;0.194;2023-06-22T22:06:08;10.90;;;6.87;;
76699;SDS011;70081;44.524;0.194;2023-06-22T22:11:41;10.60;;;7.07;;
76699;SDS011;70081;44.524;0.194;2023-06-22T22:17:14;8.90;;;6.70;;
76699;SDS011;70081;44.524;0.194;2023-06-22T22:22:46;11.60;;;6.23;;
76699;SDS011;70081;44.524;0.194;2023-06-22T22:28:20;13.43;;;6.97;;
76699;SDS011;70081;44.524;0.194;2023-06-22T22:33:52;12.23;;;7.60;;
76699;SDS011;70081;44.524;0.194;2023-06-22T22:39:32;11.57;;;6.40;;
76699;SDS011;70081;44.524;0.194;2023-06-22T22:44:56;15.00;;;7.40;;
76699;SDS011;70081;44.524;0.194;2023-06-22T22:50:29;9.90;;;6.77;;
76699;SDS011;70081;44.524;0.194;2023-06-22T22:56:01;11.13;;;7.10;;
76699;SDS011;70081;44.524;0.194;2023-06-22T23:01:34;8.23;;;6.13;;
76699;SDS011;70081;44.524;0.194;2023-06-22T23:07:05;13.00;;;7.27;;
76699;SDS011;70081;44.524;0.194;2023-06-22T23:12:42;10.60;;;7.13;;
76699;SDS011;70081;44.524;0.194;2023-06-22T23:18:11;11.23;;;6.97;;
76699;SDS011;70081;44.524;0.194;2023-06-22T23:23:43;10.57;;;7.37;;
76699;SDS011;70081;44.524;0.194;2023-06-22T23:29:16;13.07;;;8.30;;
76699;SDS011;70081;44.524;0.194;2023-06-22T23:34:49;10.10;;;7.47;;
76699;SDS011;70081;44.524;0.194;2023-06-22T23:40:22;11.00;;;8.13;;
76699;SDS011;70081;44.524;0.194;2023-06-22T23:45:55;10.53;;;8.70;;
76699;SDS011;70081;44.524;0.194;2023-06-22T23:51:28;11.53;;;8.50;;
76699;SDS011;70081;44.524;0.194;2023-06-22T23:57:01;16.37;;;8.23;;
